Weather at Harrison Field

Public forecast

Using degrees Fahrenheit for public forecast. Weather courtesy of forecast.io.

Closest aviation weather report (METAR) to Harrison Field

Closest report is North Texas Regional Airport/Perrin Field, 1.8 nm (3.4 km) WSW.

2023/09/29 16:50 (retrieved 25 minutes ago)

KGYI 291650Z 18009KT 10SM CLR 33/19 A3004

Closest aviation forecast (TAF) to Harrison Field

Closest forecast is Dallas Fort Worth International Airport, 53.4 nm (98.9 km) SSW.

2023/09/29 15:03 Ammendment (retrieved 2 hours ago)

TAF AMD KDFW 291500Z 2915/3018 17009KT P6SM FEW060